Airfield :







YOU CAN JOIN US ON...

 
LOGIN :

Register | Disclaimer

   EN    FR    IT 

 









Legend :    VFR   Marginal VFR   IFR   Intensive IFR   Very Intensive IFR
Visi :
Ceiling :
>= 8 km
>= 3000ft
5 to 8 km
1000 to 3000 ft
1500m to 5 km
500 to 1000 ft
800 to 1500m
200 to 500 ft
< 800m
< 200 ft
Symbols :   Thunderstorms  Fog  Heavy snow  Heavy precipitations  Wind > 20 kt






- Airport Elevation : 270 ft
- IATA code : YMX


CYMX - Montreal International Mirabel

CURRENT METAR :
  • 182200Z 36005KT 6SM -FZDZ BR SCT008 OVC024 M06/M07 A2977 RMK SF4SC4 VIS S-SW 20 SLP088

EXPIRED METARs :
  • 182100Z 02005KT 360V070 10SM -FZDZ SCT008 OVC024 M08/M09 A2980 RMK SC4SC4 SLP098
  • 182020Z 01008KT 350V050 2SM -FZDZ -SN BKN008 M08/M10 A2982 RMK SN3SF5 PRESFR SLP107
  • 182000Z 03006KT 2SM -SHSN VV011 M09/M10 A2984 RMK SN8 CVCTV CLD EMBD PRESFR SLP114

TAF AMD TAF CYMX
Valid from the 18 at 20:00 until the 19 at 18:00 UTC


182037Z 1820/1918 01008KT 2SM -SN -FZDZ BR OVC007
TEMPO 1820/1823 6SM -SN OVC015
FM182300 19012KT 3SM -RA -DZ BR OVC006
TEMPO 1823/1902 6SM BR FEW006 OVC012
FM190200 25015G25KT P6SM BKN025
TEMPO 1902/1904 BKN020
FM190400 25012G22KT P6SM BKN025
TEMPO 1908/1915 5SM -SHSN BKN020
PROB30 1913/1915 3/4SM -SHSN VV008
FM191700 29015G25KT P6SM FEW040 RMK NXT FCST BY 190000Z



MET'MAP, your aeronautical weather chart ! - Copyright ORBIFLY December 2007 - Disclaimer

ORBIFLY MET'MAP TEAM :

Programming & Development : Alexandra Zaïnal
Concept & original design : Baudouin d'Aumeries
Assistance for programming : Marc-Olivier Méhu
Technical & hardware support : Manuel Goepfert

Contact : metmap@orbifly.com




SOURCES & CREDITS :

   NOAA